CDT,Max TemperatureF,Mean TemperatureF,Min TemperatureF,Max Dew PointF,MeanDew PointF,Min DewpointF,Max Humidity, Mean Humidity, Min Humidity, Max Sea Level PressureIn, Mean Sea Level PressureIn, Min Sea Level PressureIn, Max VisibilityMiles, Mean VisibilityMiles, Min VisibilityMiles, Max Wind SpeedMPH, Mean Wind SpeedMPH, Max Gust SpeedMPH,PrecipitationIn, CloudCover, Events, WindDirDegrees
2013-8-1,69,60,51,55,52,48,100,77,49,29.95,29.91,29.85,10,10,7,16,5,22,0.35,3,Rain-Thunderstorm,281
2013-8-2,68,58,48,55,50,46,100,76,46,30.03,29.91,29.83,10,9,0,16,4,24,0.01,3,Fog,307
2013-8-3,66,55,44,52,47,45,100,74,49,30.22,30.13,30.03,10,10,10,13,3,18,0.00,3,,329
2013-8-4,71,55,39,52,45,37,100,67,35,30.24,30.16,30.02,10,10,7,8,1,,0.00,2,,200
2013-8-5,66,60,53,61,56,48,100,86,72,30.01,29.87,29.78,10,10,4,6,2,,0.04,8,Rain,186
2013-8-6,68,60,51,59,56,50,100,88,64,29.80,29.77,29.75,10,7,0,10,1,,0.01,7,Fog-Rain,286
2013-8-7,68,59,50,55,47,41,100,69,43,30.00,29.91,29.78,10,10,5,15,5,25,0.00,2,,300
2013-8-8,66,57,48,50,47,45,94,72,46,30.02,29.99,29.95,10,10,10,14,3,21,0.00,4,,270
2013-8-9,64,55,46,54,49,45,100,80,59,30.10,29.99,29.93,10,10,3,16,5,23,0.00,5,Rain,279
2013-8-10,71,56,42,54,49,43,100,73,41,30.16,30.12,30.08,10,9,0,8,2,,0.00,3,Fog,292
2013-8-11,71,60,48,55,52,46,100,79,53,30.08,30.05,30.01,10,10,7,8,1,17,0.01,4,Rain,288
2013-8-12,66,57,48,55,48,41,100,74,42,30.11,30.03,29.98,10,10,10,10,2,20,0.00,3,,5
2013-8-13,62,52,42,48,45,41,100,74,48,30.21,30.17,30.11,10,10,10,8,2,,0.00,5,,354
2013-8-14,69,52,35,52,43,34,100,71,40,30.21,30.15,30.08,10,9,0,10,1,,0.00,2,Fog,285
2013-8-15,73,57,41,54,46,39,100,68,36,30.11,30.09,30.07,10,10,1,8,1,,0.00,1,,292
2013-8-16,78,61,44,61,53,43,100,71,44,30.15,30.12,30.10,10,10,7,8,1,,0.00,1,,226
2013-8-17,78,66,53,57,55,52,94,67,44,30.15,30.10,30.04,10,10,10,16,5,23,0.00,0,,220
2013-8-18,77,68,60,61,57,55,82,65,50,30.07,30.01,29.93,10,10,10,15,8,23,0.00,1,,213
2013-8-19,84,73,62,66,62,55,94,71,45,29.93,29.89,29.85,10,10,3,10,6,,0.39,2,Rain-Thunderstorm,217
2013-8-20,87,76,66,70,66,64,94,73,48,29.89,29.84,29.78,10,9,4,14,6,21,0.00,1,,205
2013-8-21,80,66,51,70,57,45,94,66,30,30.05,29.90,29.76,10,10,7,21,9,32,0.15,1,Rain-Thunderstorm,277
2013-8-22,73,60,46,54,48,43,100,65,33,30.17,30.13,30.05,10,10,10,12,1,17,0.00,1,Rain,313
2013-8-23,78,60,42,55,49,43,100,66,34,30.18,30.13,30.06,10,10,10,9,2,,0.00,0,,200
2013-8-24,84,70,55,68,62,48,88,70,51,30.08,29.99,29.85,10,10,10,20,6,25,0.00,1,,177
2013-8-25,89,81,73,72,69,61,89,71,38,29.95,29.91,29.86,10,10,10,13,8,22,0.00,3,Thunderstorm,233
2013-8-26,87,74,60,70,64,59,100,72,38,30.00,29.95,29.90,10,10,5,15,1,20,0.05,1,Rain,143
2013-8-27,87,74,60,68,65,61,100,76,43,29.96,29.90,29.85,10,8,0,6,1,,0.00,2,Fog-Rain,57
2013-8-28,87,73,59,70,64,57,100,75,43,30.09,30.01,29.96,10,8,0,10,2,22,0.34,2,Fog-Rain-Thunderstorm,226
2013-8-29,75,68,60,70,64,57,100,88,73,30.05,29.95,29.78,10,8,0,15,3,20,0.32,4,Fog-Rain-Thunderstorm,180
2013-8-30,77,70,62,64,61,59,94,78,57,30.00,29.94,29.83,10,10,7,8,4,,0.00,3,,19
2013-8-31,82,70,59,66,61,57,94,80,51,29.92,29.81,29.70,10,10,10,15,6,23,0.17,3,Rain-Thunderstorm,196